Time;durP1;ratioP1;P1;durP2;ratioP2;P2;SDS_P1;SDS_P2;PMS_P1;PMS_P2;Temp;Humidity;BMP_temperature;BMP_pressure;BME280_temperature;BME280_humidity;BME280_pressure;Samples;Min_cycle;Max_cycle;Signal;HPM_P1;HPM_P2
2023/07/27 00:00:27;;;;;;;;;;;;;;;15.66;100.00;101015.31;5097085;28;20410;-70
2023/07/27 00:02:52;;;;;;;;;;;;;;;15.60;100.00;101015.97;5096942;28;19989;-70
2023/07/27 00:05:17;;;;;;;;;;;;;;;15.54;100.00;101011.28;5096888;28;20391;-71
2023/07/27 00:07:42;;;;;;;;;;;;;;;15.47;100.00;101003.09;5097455;28;19924;-70
2023/07/27 00:10:08;;;;;;;;;;;;;;;15.39;100.00;101003.06;5097101;28;20007;-70
2023/07/27 00:12:33;;;;;;;;;;;;;;;15.31;100.00;101006.59;5096784;28;20020;-70
2023/07/27 00:14:58;;;;;;;;;;;;;;;15.22;100.00;101010.25;5097283;28;20360;-70
2023/07/27 00:17:23;;;;;;;;;;;;;;;15.17;100.00;101000.03;5096687;28;19926;-69
2023/07/27 00:19:48;;;;;;;;;;;;;;;15.11;100.00;100996.19;5097552;28;19979;-70
2023/07/27 00:22:14;;;;;;;;;;;;;;;15.07;100.00;100996.69;5078400;28;19923;-70
2023/07/27 00:24:39;;;;;;;;;;;;;;;15.01;100.00;100997.34;5096563;28;19973;-70
2023/07/27 00:27:04;;;;;;;;;;;;;;;14.93;100.00;100999.00;5096556;28;19974;-70
2023/07/27 00:29:29;;;;;;;;;;;;;;;14.85;100.00;100996.28;5096159;28;19924;-70
2023/07/27 00:31:55;;;;;;;;;;;;;;;14.77;100.00;100991.75;5096431;28;19920;-71
2023/07/27 00:34:20;;;;;;;;;;;;;;;14.68;100.00;100995.41;5096687;28;20003;-71
2023/07/27 00:36:45;;;;;;;;;;;;;;;14.56;100.00;100996.66;5096614;28;20352;-69
2023/07/27 00:39:11;;;;;;;;;;;;;;;14.39;100.00;100991.25;5096341;28;19920;-70
2023/07/27 00:41:39;;;;;;;;;;;;;;;14.27;100.00;100982.66;5096127;28;19916;-70
2023/07/27 00:44:04;;;;;;;;;;;;;;;14.13;100.00;100988.59;5096218;28;19916;-70
2023/07/27 00:46:30;;;;;;;;;;;;;;;14.04;100.00;100982.34;5096445;28;19927;-70
2023/07/27 00:48:55;;;;;;;;;;;;;;;13.95;100.00;100974.44;5096176;28;19968;-70
2023/07/27 00:51:20;;;;;;;;;;;;;;;13.87;100.00;100976.06;5095646;28;19916;-72
2023/07/27 00:53:46;;;;;;;;;;;;;;;13.86;100.00;100974.38;5095762;28;20368;-71
2023/07/27 00:56:11;;;;;;;;;;;;;;;13.83;100.00;100963.19;5096176;28;20284;-71
2023/07/27 00:58:38;;;;;;;;;;;;;;;13.81;100.00;100962.47;5095936;28;19952;-71
2023/07/27 01:01:04;;;;;;;;;;;;;;;13.81;100.00;100957.97;5095911;28;19920;-70
2023/07/27 01:03:29;;;;;;;;;;;;;;;13.74;100.00;100955.09;5096402;28;20497;-71
2023/07/27 01:05:54;;;;;;;;;;;;;;;13.72;100.00;100943.72;5096292;28;19965;-71
2023/07/27 01:08:19;;;;;;;;;;;;;;;13.69;100.00;100937.81;5095731;28;19920;-71
2023/07/27 01:10:53;;;;;;;;;;;;;;;13.66;100.00;100935.47;5095808;28;20344;-72
2023/07/27 01:13:21;;;;;;;;;;;;;;;13.62;100.00;100929.63;5095237;28;20029;-71
2023/07/27 01:15:51;;;;;;;;;;;;;;;13.60;100.00;100920.91;5095408;28;19930;-71
2023/07/27 01:18:22;;;;;;;;;;;;;;;13.61;100.00;100913.72;5095815;28;19916;-71
2023/07/27 01:20:49;;;;;;;;;;;;;;;13.61;100.00;100919.06;5095686;28;19916;-71
2023/07/27 01:23:17;;;;;;;;;;;;;;;13.56;100.00;100909.69;5095432;28;19916;-71
2023/07/27 01:25:45;;;;;;;;;;;;;;;13.51;100.00;100903.97;5095781;28;19927;-71
2023/07/27 01:28:13;;;;;;;;;;;;;;;13.49;100.00;100899.78;5095359;28;19916;-72
2023/07/27 01:30:48;;;;;;;;;;;;;;;13.51;100.00;100892.44;5095190;28;19916;-71
2023/07/27 01:33:14;;;;;;;;;;;;;;;13.49;100.00;100891.75;5095738;28;19927;-71
2023/07/27 01:35:43;;;;;;;;;;;;;;;13.46;100.00;100886.72;5095327;28;19916;-71
2023/07/27 01:38:09;;;;;;;;;;;;;;;13.42;100.00;100885.38;5095242;28;19984;-71
2023/07/27 01:40:34;;;;;;;;;;;;;;;13.38;100.00;100883.00;5095183;28;19916;-71
2023/07/27 01:43:01;;;;;;;;;;;;;;;13.35;100.00;100883.31;5095180;28;19923;-71
2023/07/27 01:45:26;;;;;;;;;;;;;;;13.35;100.00;100871.81;5094853;28;19974;-71
2023/07/27 01:47:52;;;;;;;;;;;;;;;13.34;100.00;100864.78;5095190;28;20313;-71
2023/07/27 01:50:17;;;;;;;;;;;;;;;13.35;100.00;100869.97;5095044;28;19931;-70
2023/07/27 01:52:44;;;;;;;;;;;;;;;13.32;100.00;100856.88;5094891;28;20275;-71
2023/07/27 01:55:10;;;;;;;;;;;;;;;13.29;100.00;100851.84;5094804;28;20257;-71
2023/07/27 01:57:35;;;;;;;;;;;;;;;13.26;100.00;100838.81;5095273;28;19916;-71
2023/07/27 02:00:01;;;;;;;;;;;;;;;13.25;100.00;100844.31;5095242;28;19938;-70
2023/07/27 02:02:27;;;;;;;;;;;;;;;13.22;100.00;100840.94;5095076;28;20381;-71
2023/07/27 02:04:53;;;;;;;;;;;;;;;13.22;100.00;100837.44;5094938;28;19921;-70
2023/07/27 02:07:19;;;;;;;;;;;;;;;13.21;100.00;100825.91;5094679;28;19969;-71
2023/07/27 02:09:44;;;;;;;;;;;;;;;13.20;100.00;100828.75;5076379;28;19920;-71
2023/07/27 02:12:13;;;;;;;;;;;;;;;13.20;100.00;100810.03;5076113;28;19927;-71
2023/07/27 02:14:54;;;;;;;;;;;;;;;13.17;100.00;100805.84;5094667;28;19923;-71
2023/07/27 02:17:22;;;;;;;;;;;;;;;13.16;100.00;100801.50;5094597;28;19923;-71
2023/07/27 02:19:50;;;;;;;;;;;;;;;13.17;100.00;100789.81;5095270;28;19916;-71
2023/07/27 02:22:16;;;;;;;;;;;;;;;13.20;100.00;100786.00;5094654;28;20329;-71
2023/07/27 02:24:42;;;;;;;;;;;;;;;13.23;100.00;100775.81;5076457;28;19916;-71
2023/07/27 02:27:07;;;;;;;;;;;;;;;13.28;100.00;100769.19;5095139;28;19962;-71
2023/07/27 02:29:32;;;;;;;;;;;;;;;13.31;100.00;100767.00;5076143;28;19924;-71
2023/07/27 02:31:57;;;;;;;;;;;;;;;13.32;100.00;100752.66;5094334;28;19920;-71
2023/07/27 02:34:23;;;;;;;;;;;;;;;13.33;100.00;100748.16;5094301;28;19928;-72
2023/07/27 02:36:48;;;;;;;;;;;;;;;13.35;100.00;100743.53;5094556;28;19920;-71
2023/07/27 02:39:13;;;;;;;;;;;;;;;13.34;100.00;100737.34;5093828;28;19927;-71
2023/07/27 02:41:38;;;;;;;;;;;;;;;13.35;100.00;100733.66;5094220;28;19920;-71
2023/07/27 02:44:04;;;;;;;;;;;;;;;13.34;100.00;100729.31;5093960;28;20236;-71
2023/07/27 02:46:29;;;;;;;;;;;;;;;13.33;100.00;100718.75;5094226;28;20372;-71
2023/07/27 02:48:55;;;;;;;;;;;;;;;13.33;100.00;100722.28;5093808;28;20426;-71
2023/07/27 02:51:20;;;;;;;;;;;;;;;13.33;100.00;100718.75;5093896;28;20433;-71
2023/07/27 02:53:46;;;;;;;;;;;;;;;13.34;100.00;100712.47;5094435;28;20004;-70
2023/07/27 02:56:11;;;;;;;;;;;;;;;13.30;100.00;100701.22;5093965;28;19924;-71
2023/07/27 02:58:36;;;;;;;;;;;;;;;13.32;100.00;100701.06;5094121;28;19927;-71
2023/07/27 03:01:02;;;;;;;;;;;;;;;13.29;100.00;100699.53;5093541;28;20079;-69
2023/07/27 03:03:28;;;;;;;;;;;;;;;13.28;100.00;100695.19;5093809;28;19924;-70
2023/07/27 03:05:57;;;;;;;;;;;;;;;13.29;100.00;100693.38;5094193;28;20372;-71
2023/07/27 03:08:22;;;;;;;;;;;;;;;13.28;100.00;100689.84;5093726;28;19920;-71
2023/07/27 03:10:47;;;;;;;;;;;;;;;13.28;100.00;100681.84;5093873;28;19974;-71
2023/07/27 03:13:12;;;;;;;;;;;;;;;13.27;100.00;100676.66;5093421;28;19931;-70
2023/07/27 03:15:38;;;;;;;;;;;;;;;13.27;100.00;100679.31;5092957;28;19928;-70
2023/07/27 03:18:04;;;;;;;;;;;;;;;13.29;100.00;100670.16;5093782;28;20371;-71
2023/07/27 03:20:29;;;;;;;;;;;;;;;13.26;100.00;100667.81;5093983;28;19924;-71
2023/07/27 03:22:54;;;;;;;;;;;;;;;13.26;100.00;100657.13;5093669;28;19967;-71
2023/07/27 03:25:20;;;;;;;;;;;;;;;13.27;100.00;100648.13;5093584;28;19920;-71
2023/07/27 03:27:45;;;;;;;;;;;;;;;13.28;100.00;100649.78;5094043;28;20348;-71
2023/07/27 03:30:10;;;;;;;;;;;;;;;13.27;100.00;100640.09;5094186;28;19927;-71
2023/07/27 03:32:38;;;;;;;;;;;;;;;13.25;100.00;100644.75;5093757;28;19920;-72
2023/07/27 03:35:03;;;;;;;;;;;;;;;13.26;100.00;100642.94;5093275;28;20426;-71
2023/07/27 03:37:28;;;;;;;;;;;;;;;13.28;100.00;100638.25;5093114;28;19916;-71
2023/07/27 03:39:53;;;;;;;;;;;;;;;13.29;100.00;100637.28;5093569;28;19927;-73
2023/07/27 03:42:19;;;;;;;;;;;;;;;13.29;100.00;100627.41;5093752;28;19920;-72
2023/07/27 03:44:44;;;;;;;;;;;;;;;13.29;100.00;100630.09;5093726;28;20389;-72
2023/07/27 03:47:09;;;;;;;;;;;;;;;13.29;100.00;100626.59;5093866;28;20306;-72
2023/07/27 03:49:35;;;;;;;;;;;;;;;13.30;100.00;100623.75;5093396;28;20368;-71
2023/07/27 03:52:00;;;;;;;;;;;;;;;13.30;100.00;100620.22;5093378;28;19927;-72
2023/07/27 03:54:25;;;;;;;;;;;;;;;13.27;100.00;100615.19;5093400;28;20402;-72
2023/07/27 03:56:50;;;;;;;;;;;;;;;13.27;100.00;100596.50;5093668;28;20344;-72
2023/07/27 03:59:16;;;;;;;;;;;;;;;13.24;100.00;100592.31;5093395;28;19920;-71
2023/07/27 04:01:41;;;;;;;;;;;;;;;13.25;100.00;100599.34;5074863;28;19929;-71
2023/07/27 04:04:06;;;;;;;;;;;;;;;13.24;100.00;100594.97;5093285;28;20279;-71
2023/07/27 04:06:31;;;;;;;;;;;;;;;13.23;100.00;100593.31;5075199;28;19927;-71
2023/07/27 04:08:57;;;;;;;;;;;;;;;13.23;100.00;100601.34;5093305;28;19993;-70
2023/07/27 04:11:22;;;;;;;;;;;;;;;13.25;100.00;100596.66;5093237;28;19920;-70
2023/07/27 04:13:47;;;;;;;;;;;;;;;13.26;100.00;100584.97;5093153;28;19920;-70
2023/07/27 04:16:12;;;;;;;;;;;;;;;13.28;100.00;100584.81;5093279;28;20376;-70
2023/07/27 04:18:37;;;;;;;;;;;;;;;13.29;100.00;100581.16;5093045;28;20394;-71
2023/07/27 04:21:03;;;;;;;;;;;;;;;13.31;100.00;100576.47;5093230;28;20371;-71
2023/07/27 04:23:28;;;;;;;;;;;;;;;13.33;100.00;100572.66;5092966;28;19920;-71
2023/07/27 04:25:53;;;;;;;;;;;;;;;13.34;100.00;100571.66;5093420;28;19931;-71
2023/07/27 04:28:18;;;;;;;;;;;;;;;13.36;100.00;100563.47;5096161;28;19926;-71
2023/07/27 04:30:44;;;;;;;;;;;;;;;13.36;100.00;100564.34;5079005;28;19998;-71
2023/07/27 04:33:09;;;;;;;;;;;;;;;13.39;100.00;100569.34;5078415;28;19990;-72
2023/07/27 04:35:34;;;;;;;;;;;;;;;13.42;100.00;100562.00;5096766;28;19965;-71
2023/07/27 04:38:00;;;;;;;;;;;;;;;13.46;100.00;100558.00;5078660;28;19927;-71
2023/07/27 04:40:25;;;;;;;;;;;;;;;13.48;100.00;100561.34;5096377;28;20020;-71
2023/07/27 04:42:50;;;;;;;;;;;;;;;13.50;100.00;100554.84;5096359;28;20380;-71
2023/07/27 04:45:15;;;;;;;;;;;;;;;13.53;100.00;100548.31;5096107;28;20300;-71
2023/07/27 04:47:41;;;;;;;;;;;;;;;13.55;100.00;100540.97;5096358;28;19923;-72
2023/07/27 04:50:06;;;;;;;;;;;;;;;13.58;100.00;100543.31;5095995;28;20373;-72
2023/07/27 04:52:31;;;;;;;;;;;;;;;13.62;100.00;100539.31;5096620;28;19916;-72
2023/07/27 04:55:22;;;;;;;;;;;;;;;13.66;100.00;100539.81;5097490;28;19927;-71
2023/07/27 05:00:53;;;;;;;;;;;;;;;13.73;100.00;100528.28;5075656;28;19920;-71
2023/07/27 05:03:19;;;;;;;;;;;;;;;13.77;100.00;100518.09;5075513;28;20473;-72
2023/07/27 05:05:44;;;;;;;;;;;;;;;13.82;100.00;100517.59;5075884;28;20019;-72
2023/07/27 05:08:09;;;;;;;;;;;;;;;13.86;100.00;100513.56;5075837;28;20357;-72
2023/07/27 05:10:34;;;;;;;;;;;;;;;13.90;100.00;100510.41;5075714;28;20245;-72
2023/07/27 05:13:00;;;;;;;;;;;;;;;13.93;100.00;100514.56;5075614;28;20375;-72
2023/07/27 05:15:25;;;;;;;;;;;;;;;13.97;100.00;100509.72;5075842;28;20364;-72
2023/07/27 05:17:50;;;;;;;;;;;;;;;14.01;100.00;100517.22;5075859;28;20374;-72
2023/07/27 05:20:15;;;;;;;;;;;;;;;14.06;100.00;100508.69;5057802;28;19982;-72
2023/07/27 05:22:42;;;;;;;;;;;;;;;14.11;100.00;100507.19;5075479;28;19921;-72
2023/07/27 05:25:08;;;;;;;;;;;;;;;14.17;100.00;100505.66;5075551;28;19924;-73
2023/07/27 05:27:34;;;;;;;;;;;;;;;14.21;100.00;100503.47;5057318;28;19927;-72
2023/07/27 05:29:59;;;;;;;;;;;;;;;14.24;100.00;100503.97;5074847;28;19920;-73
2023/07/27 05:32:24;;;;;;;;;;;;;;;14.28;100.00;100505.28;5074973;28;19955;-73
2023/07/27 05:34:49;;;;;;;;;;;;;;;14.34;100.00;100494.91;5074948;28;19945;-72
2023/07/27 05:37:15;;;;;;;;;;;;;;;14.40;100.00;100491.56;5057019;28;19999;-72
2023/07/27 05:39:40;;;;;;;;;;;;;;;14.45;100.00;100494.53;5074901;28;20003;-72
2023/07/27 05:42:05;;;;;;;;;;;;;;;14.48;100.00;100491.53;5075287;28;20010;-73
2023/07/27 05:44:30;;;;;;;;;;;;;;;14.51;100.00;100493.88;5074998;28;19920;-73
2023/07/27 05:46:56;;;;;;;;;;;;;;;14.55;100.00;100488.97;5074954;28;19920;-73
2023/07/27 05:49:21;;;;;;;;;;;;;;;14.60;100.00;100486.59;5074183;28;20027;-72
2023/07/27 05:51:46;;;;;;;;;;;;;;;14.66;100.00;100483.28;5074343;28;19974;-72
2023/07/27 05:54:12;;;;;;;;;;;;;;;14.70;100.00;100476.56;5056909;28;20387;-73
2023/07/27 05:56:37;;;;;;;;;;;;;;;14.73;100.00;100478.06;5074723;28;19955;-74
2023/07/27 05:59:02;;;;;;;;;;;;;;;14.79;100.00;100472.00;5074704;28;19920;-74
2023/07/27 06:01:28;;;;;;;;;;;;;;;14.85;100.00;100467.78;5074109;28;20320;-73
2023/07/27 06:03:53;;;;;;;;;;;;;;;14.89;100.00;100475.28;5074253;28;19974;-74
2023/07/27 06:06:18;;;;;;;;;;;;;;;14.90;100.00;100471.63;5074251;28;19920;-74
2023/07/27 06:08:43;;;;;;;;;;;;;;;14.93;100.00;100465.91;5074062;28;19932;-73
2023/07/27 06:11:09;;;;;;;;;;;;;;;14.97;100.00;100471.72;5074249;28;20434;-74
2023/07/27 06:13:35;;;;;;;;;;;;;;;14.98;100.00;100466.19;5074018;28;19925;-74
2023/07/27 06:16:00;;;;;;;;;;;;;;;14.99;100.00;100465.19;5056788;28;19927;-74
2023/07/27 06:18:26;;;;;;;;;;;;;;;15.02;100.00;100458.66;5073773;28;19951;-73
2023/07/27 06:20:52;;;;;;;;;;;;;;;15.02;100.00;100469.38;5055693;28;20033;-73
2023/07/27 06:23:17;;;;;;;;;;;;;;;15.02;100.00;100463.16;5073961;28;19920;-74
2023/07/27 06:25:43;;;;;;;;;;;;;;;15.02;100.00;100464.00;5073803;28;19986;-73
2023/07/27 06:28:08;;;;;;;;;;;;;;;15.01;100.00;100461.50;5074272;28;19921;-73
2023/07/27 06:30:38;;;;;;;;;;;;;;;15.02;100.00;100460.47;5074100;28;19963;-74
2023/07/27 06:33:04;;;;;;;;;;;;;;;15.07;100.00;100469.66;5073582;28;19920;-74
2023/07/27 06:35:29;;;;;;;;;;;;;;;15.14;100.00;100461.75;5073324;28;19924;-74
2023/07/27 06:37:54;;;;;;;;;;;;;;;15.23;100.00;100466.03;5073300;28;20007;-74
2023/07/27 06:40:20;;;;;;;;;;;;;;;15.28;100.00;100457.47;5073370;28;19956;-74
2023/07/27 06:42:45;;;;;;;;;;;;;;;15.30;100.00;100458.09;5073760;28;19927;-74
2023/07/27 06:45:10;;;;;;;;;;;;;;;15.36;100.00;100459.25;5073593;28;19924;-74
2023/07/27 06:47:36;;;;;;;;;;;;;;;15.41;100.00;100464.91;5073782;28;20276;-74
2023/07/27 06:50:01;;;;;;;;;;;;;;;15.38;100.00;100455.38;5073080;28;19924;-74
2023/07/27 06:52:27;;;;;;;;;;;;;;;15.39;100.00;100456.19;5073186;28;19916;-74
2023/07/27 06:54:52;;;;;;;;;;;;;;;15.39;100.00;100461.56;5073759;28;19966;-73
2023/07/27 06:57:17;;;;;;;;;;;;;;;15.39;100.00;100461.56;5073798;28;20376;-74
2023/07/27 06:59:42;;;;;;;;;;;;;;;15.39;100.00;100459.72;5073228;28;20023;-74
2023/07/27 07:02:08;;;;;;;;;;;;;;;15.37;100.00;100445.66;5055340;28;19932;-74
2023/07/27 07:04:33;;;;;;;;;;;;;;;15.36;100.00;100452.03;5055213;28;19921;-73
2023/07/27 07:06:58;;;;;;;;;;;;;;;15.38;100.00;100457.22;5073031;28;20007;-73
2023/07/27 07:09:23;;;;;;;;;;;;;;;15.41;100.00;100456.88;5073139;28;19921;-73
2023/07/27 07:11:49;;;;;;;;;;;;;;;15.38;100.00;100459.91;5072968;28;19921;-73
2023/07/27 07:14:14;;;;;;;;;;;;;;;15.36;100.00;100462.78;5056010;28;19928;-74
2023/07/27 07:16:39;;;;;;;;;;;;;;;15.40;100.00;100460.56;5073340;28;20395;-73
2023/07/27 07:19:05;;;;;;;;;;;;;;;15.44;100.00;100457.31;5073152;28;20337;-73
2023/07/27 07:21:30;;;;;;;;;;;;;;;15.51;100.00;100454.78;5055364;28;19928;-73
2023/07/27 07:23:55;;;;;;;;;;;;;;;15.61;100.00;100446.47;5073167;28;19924;-74
2023/07/27 07:26:21;;;;;;;;;;;;;;;15.69;100.00;100447.22;5055857;28;20023;-73
2023/07/27 07:28:46;;;;;;;;;;;;;;;15.75;100.00;100444.81;5073407;28;19920;-72
2023/07/27 07:31:11;;;;;;;;;;;;;;;15.82;100.00;100446.63;5073639;28;19921;-73
2023/07/27 07:33:36;;;;;;;;;;;;;;;15.85;100.00;100456.16;5073390;28;19921;-73
2023/07/27 07:36:02;;;;;;;;;;;;;;;15.80;100.00;100448.66;5073113;28;19921;-73
2023/07/27 07:38:28;;;;;;;;;;;;;;;15.80;100.00;100442.47;5073435;28;19920;-73
2023/07/27 07:40:53;;;;;;;;;;;;;;;15.78;100.00;100452.53;5073205;28;20015;-73
2023/07/27 07:43:18;;;;;;;;;;;;;;;15.76;100.00;100438.44;5073659;28;19956;-75
2023/07/27 07:45:44;;;;;;;;;;;;;;;15.74;100.00;100444.00;5073299;28;19971;-73
2023/07/27 07:48:09;;;;;;;;;;;;;;;15.74;100.00;100448.53;5073085;28;19920;-73
2023/07/27 07:50:37;;;;;;;;;;;;;;;15.74;100.00;100443.16;5073193;28;20344;-73
2023/07/27 07:53:03;;;;;;;;;;;;;;;15.78;100.00;100437.28;5073249;28;19925;-72
2023/07/27 07:55:28;;;;;;;;;;;;;;;15.85;100.00;100448.09;5072948;28;20364;-71
2023/07/27 07:57:53;;;;;;;;;;;;;;;15.84;100.00;100449.97;5073173;28;19955;-73
2023/07/27 08:00:18;;;;;;;;;;;;;;;15.84;100.00;100447.28;5055001;28;19921;-72
2023/07/27 08:02:44;;;;;;;;;;;;;;;15.88;100.00;100449.59;5076567;28;19977;-73
2023/07/27 08:05:09;;;;;;;;;;;;;;;15.90;100.00;100448.41;5076983;28;20356;-72
2023/07/27 08:07:35;;;;;;;;;;;;;;;15.90;100.00;100447.53;5077750;28;20004;-73
2023/07/27 08:10:02;;;;;;;;;;;;;;;15.88;100.00;100434.31;5076488;28;19966;-73
2023/07/27 08:12:27;;;;;;;;;;;;;;;15.90;100.00;100428.75;5076570;28;19966;-73
2023/07/27 08:14:52;;;;;;;;;;;;;;;15.94;100.00;100427.38;5076427;28;20366;-73
2023/07/27 08:17:18;;;;;;;;;;;;;;;15.99;100.00;100419.63;5076542;28;19942;-74
2023/07/27 08:19:43;;;;;;;;;;;;;;;15.98;100.00;100434.88;5076388;28;19942;-73
2023/07/27 08:22:08;;;;;;;;;;;;;;;16.02;100.00;100430.00;5076468;28;19956;-73
2023/07/27 08:24:33;;;;;;;;;;;;;;;16.07;100.00;100426.75;5076604;28;19931;-72
2023/07/27 08:26:59;;;;;;;;;;;;;;;16.10;100.00;100426.38;5076306;28;19920;-73
2023/07/27 08:29:24;;;;;;;;;;;;;;;16.13;100.00;100428.69;5076389;28;19973;-73
2023/07/27 08:31:49;;;;;;;;;;;;;;;16.15;100.00;100424.81;5058303;28;20013;-73
2023/07/27 08:34:15;;;;;;;;;;;;;;;16.24;100.00;100428.22;5075953;28;19952;-76
2023/07/27 08:36:40;;;;;;;;;;;;;;;16.29;100.00;100417.75;5076325;28;20011;-72
2023/07/27 08:39:06;;;;;;;;;;;;;;;16.35;100.00;100418.88;5076086;28;19927;-73
2023/07/27 08:41:31;;;;;;;;;;;;;;;16.49;100.00;100420.69;5076147;28;19960;-73
2023/07/27 08:43:57;;;;;;;;;;;;;;;16.57;100.00;100417.06;5076051;28;20253;-74
2023/07/27 08:46:23;;;;;;;;;;;;;;;16.64;100.00;100419.81;5076205;28;19999;-73
2023/07/27 08:48:49;;;;;;;;;;;;;;;16.62;100.00;100422.69;5075825;28;19966;-74
2023/07/27 08:51:15;;;;;;;;;;;;;;;16.70;100.00;100427.94;5076390;28;19916;-73
2023/07/27 08:53:40;;;;;;;;;;;;;;;16.74;100.00;100423.88;5058255;28;19920;-73
2023/07/27 08:56:05;;;;;;;;;;;;;;;16.77;100.00;100429.91;5075623;28;19925;-72
2023/07/27 08:58:30;;;;;;;;;;;;;;;16.73;100.00;100434.81;5075825;28;20360;-72
2023/07/27 09:00:56;;;;;;;;;;;;;;;16.71;100.00;100431.47;5076368;28;20217;-72
2023/07/27 09:03:21;;;;;;;;;;;;;;;16.67;100.00;100427.50;5075656;28;19916;-72
2023/07/27 09:05:57;;;;;;;;;;;;;;;16.63;100.00;100432.44;5075794;28;19921;-72
2023/07/27 09:08:22;;;;;;;;;;;;;;;16.65;100.00;100430.38;5076205;28;19923;-72
2023/07/27 09:10:48;;;;;;;;;;;;;;;16.74;100.00;100428.41;5075758;28;19917;-72
2023/07/27 09:13:13;;;;;;;;;;;;;;;16.81;100.00;100432.00;5075209;28;19931;-74
2023/07/27 09:15:43;;;;;;;;;;;;;;;16.99;100.00;100425.38;5075889;28;19920;-73
2023/07/27 09:18:09;;;;;;;;;;;;;;;17.05;100.00;100436.22;5075341;28;19917;-72
2023/07/27 09:20:34;;;;;;;;;;;;;;;17.08;100.00;100432.31;5057582;28;19927;-72
2023/07/27 09:23:00;;;;;;;;;;;;;;;17.08;100.00;100430.47;5075554;28;19920;-72
2023/07/27 09:25:25;;;;;;;;;;;;;;;17.09;100.00;100436.66;5057466;28;20283;-72
2023/07/27 09:27:54;;;;;;;;;;;;;;;17.09;100.00;100432.13;5075096;28;19946;-73
2023/07/27 09:30:20;;;;;;;;;;;;;;;17.19;100.00;100428.28;5075104;28;19917;-73
2023/07/27 09:32:48;;;;;;;;;;;;;;;17.20;100.00;100433.47;5075244;28;19924;-73
2023/07/27 09:35:14;;;;;;;;;;;;;;;17.18;100.00;100434.69;5075177;28;19925;-71
2023/07/27 09:37:47;;;;;;;;;;;;;;;17.31;100.00;100429.41;5075655;28;20042;-73
2023/07/27 09:40:13;;;;;;;;;;;;;;;17.34;100.00;100441.66;5075276;28;20053;-72
2023/07/27 09:42:40;;;;;;;;;;;;;;;17.31;100.00;100429.41;5075088;28;19917;-73
2023/07/27 09:45:05;;;;;;;;;;;;;;;17.30;100.00;100427.75;5075478;28;19959;-72
2023/07/27 09:47:31;;;;;;;;;;;;;;;17.31;100.00;100431.28;5075303;28;19924;-71
2023/07/27 09:50:02;;;;;;;;;;;;;;;17.28;100.00;100430.63;5074892;28;19927;-71
2023/07/27 09:52:28;;;;;;;;;;;;;;;17.25;100.00;100438.25;5057157;28;20272;-72
2023/07/27 09:54:55;;;;;;;;;;;;;;;17.28;100.00;100436.00;5074490;28;19924;-73
2023/07/27 09:57:20;;;;;;;;;;;;;;;17.24;100.00;100437.44;5075273;28;19928;-71
2023/07/27 09:59:46;;;;;;;;;;;;;;;17.24;100.00;100432.06;5056755;28;19917;-71
2023/07/27 10:02:12;;;;;;;;;;;;;;;17.30;100.00;100435.00;5074626;28;19916;-71
2023/07/27 10:04:37;;;;;;;;;;;;;;;17.50;100.00;100427.94;5057618;28;19932;-71
2023/07/27 10:07:04;;;;;;;;;;;;;;;17.69;100.00;100425.56;5074474;28;20295;-71
2023/07/27 10:09:29;;;;;;;;;;;;;;;17.73;100.00;100419.59;5056439;28;19920;-72
2023/07/27 10:11:55;;;;;;;;;;;;;;;17.79;100.00;100416.16;5074412;28;20385;-72
2023/07/27 10:14:23;;;;;;;;;;;;;;;17.89;100.00;100423.03;5074561;28;19921;-71
2023/07/27 10:17:14;;;;;;;;;;;;;;;17.88;100.00;100424.06;5056443;28;19916;-72
2023/07/27 10:19:40;;;;;;;;;;;;;;;18.04;100.00;100417.56;5069115;28;19917;-73
2023/07/27 10:22:07;;;;;;;;;;;;;;;18.01;100.00;100426.03;5074192;28;19923;-72
2023/07/27 10:24:45;;;;;;;;;;;;;;;17.93;100.00;100421.66;5074251;28;19942;-72
2023/07/27 10:27:11;;;;;;;;;;;;;;;17.92;100.00;100431.56;5073875;28;19923;-73
2023/07/27 10:29:36;;;;;;;;;;;;;;;17.89;100.00;100426.59;5074059;28;20281;-71
2023/07/27 10:32:03;;;;;;;;;;;;;;;17.75;100.00;100419.41;5074252;28;20015;-72
2023/07/27 10:34:28;;;;;;;;;;;;;;;17.73;100.00;100426.84;5073735;28;19977;-73
2023/07/27 10:36:58;;;;;;;;;;;;;;;17.74;100.00;100431.22;5074027;28;19924;-72
2023/07/27 10:39:25;;;;;;;;;;;;;;;17.70;100.00;100427.25;5056395;28;19928;-70
2023/07/27 10:42:07;;;;;;;;;;;;;;;17.69;100.00;100423.75;5073633;28;19975;-72
2023/07/27 10:44:32;;;;;;;;;;;;;;;17.70;100.00;100428.06;5073544;28;19916;-71
2023/07/27 10:46:58;;;;;;;;;;;;;;;17.67;100.00;100431.16;5073580;28;20468;-70
2023/07/27 10:49:23;;;;;;;;;;;;;;;17.69;100.00;100434.50;5073139;28;19935;-71
2023/07/27 10:51:49;;;;;;;;;;;;;;;17.80;100.00;100427.75;5074170;28;19943;-70
2023/07/27 10:54:14;;;;;;;;;;;;;;;17.92;100.00;100423.50;5074265;28;19921;-70
2023/07/27 10:56:42;;;;;;;;;;;;;;;17.96;100.00;100430.16;5073095;28;20293;-71
2023/07/27 10:59:11;;;;;;;;;;;;;;;17.90;100.00;100422.03;5073066;28;20338;-70
2023/07/27 11:01:36;;;;;;;;;;;;;;;17.82;100.00;100422.97;5073253;28;19917;-72
2023/07/27 11:04:02;;;;;;;;;;;;;;;17.82;100.00;100425.69;5073249;28;19917;-71
2023/07/27 11:06:28;;;;;;;;;;;;;;;17.75;100.00;100430.16;5073811;28;19916;-71
2023/07/27 11:08:54;;;;;;;;;;;;;;;17.67;100.00;100428.47;5073164;28;19924;-71
2023/07/27 11:11:20;;;;;;;;;;;;;;;17.74;100.00;100418.59;5073511;28;19917;-71
2023/07/27 11:13:46;;;;;;;;;;;;;;;17.78;100.00;100422.56;5073153;28;20380;-71
2023/07/27 11:16:14;;;;;;;;;;;;;;;17.74;100.00;100431.22;5073286;28;19920;-71
2023/07/27 11:18:42;;;;;;;;;;;;;;;17.69;100.00;100433.66;5073253;28;20066;-71
2023/07/27 11:21:08;;;;;;;;;;;;;;;17.62;100.00;100430.94;5072941;28;19920;-71
2023/07/27 11:23:39;;;;;;;;;;;;;;;17.56;100.00;100424.47;5073128;28;19970;-71
2023/07/27 11:26:05;;;;;;;;;;;;;;;17.50;100.00;100427.94;5073243;28;19917;-71
2023/07/27 11:28:32;;;;;;;;;;;;;;;17.55;100.00;100424.66;5055376;28;19920;-72
2023/07/27 11:30:57;;;;;;;;;;;;;;;17.54;100.00;100431.06;5073331;28;20101;-71
2023/07/27 11:33:26;;;;;;;;;;;;;;;17.58;100.00;100425.09;5054594;28;19990;-72
2023/07/27 11:35:51;;;;;;;;;;;;;;;17.53;100.00;100427.53;5073681;28;19920;-71
2023/07/27 11:38:17;;;;;;;;;;;;;;;17.57;100.00;100422.59;5077051;28;19970;-71
2023/07/27 11:40:47;;;;;;;;;;;;;;;17.63;100.00;100427.22;5077059;28;19921;-71
2023/07/27 11:43:12;;;;;;;;;;;;;;;17.58;100.00;100425.09;5059624;28;20310;-71
2023/07/27 11:45:38;;;;;;;;;;;;;;;17.71;100.00;100431.63;5076631;28;19916;-72
2023/07/27 11:48:04;;;;;;;;;;;;;;;17.71;100.00;100428.91;5076650;28;19921;-71
2023/07/27 11:50:30;;;;;;;;;;;;;;;17.72;100.00;100427.88;5076996;28;19917;-71
2023/07/27 11:52:59;;;;;;;;;;;;;;;17.78;100.00;100422.56;5076790;28;19924;-71
2023/07/27 11:55:25;;;;;;;;;;;;;;;17.79;100.00;100437.69;5076453;28;19974;-71
2023/07/27 11:57:50;;;;;;;;;;;;;;;17.75;100.00;100422.94;5077585;28;19928;-70
2023/07/27 12:00:16;;;;;;;;;;;;;;;17.75;100.00;100430.16;5077157;28;19912;-71
2023/07/27 12:02:45;;;;;;;;;;;;;;;17.76;100.00;100440.72;5076371;28;20015;-70
2023/07/27 12:05:13;;;;;;;;;;;;;;;17.77;100.00;100423.56;5076764;28;19919;-71
2023/07/27 12:07:39;;;;;;;;;;;;;;;17.82;100.00;100433.75;5076488;28;19916;-71
2023/07/27 12:10:04;;;;;;;;;;;;;;;17.77;100.00;100437.03;5076189;28;20032;-71
2023/07/27 12:12:30;;;;;;;;;;;;;;;17.63;100.00;100432.59;5076252;28;19917;-71
2023/07/27 12:14:58;;;;;;;;;;;;;;;17.62;100.00;100433.63;5076617;28;19928;-71
2023/07/27 12:17:24;;;;;;;;;;;;;;;17.61;100.00;100437.31;5076130;28;19916;-72
2023/07/27 12:19:49;;;;;;;;;;;;;;;17.54;100.00;100434.59;5076277;28;19928;-72
2023/07/27 12:22:14;;;;;;;;;;;;;;;17.57;100.00;100434.19;5076717;28;19920;-72
2023/07/27 12:24:45;;;;;;;;;;;;;;;17.42;100.00;100442.34;5075801;28;19964;-71